Pagrindinis puslapis
METAR-TAF:

METAR-TAF

Oro uostai :

Kuusamo, Suomija

platuma: 65-58N, ilguma: 029-11E, Aukštis: 262 m

Dabartinis oras

Ataskaita buvo paskelbta 35 minutes, ne 10:50 UTC
Vėjas 14 kt iš Pietvakarių
Temperatūra 6°C
Drėgmė 93%
Slėgis 997 hPa
Matomumas: 7000 m
Apsiniaukę ne aukštis 1000 ft
lietus

METAR: EFKS 291050Z AUTO 22014KT 7000 -SHRA OVC010 06/05 Q0997

Laikas: 13:25 (11:25 UTC)


TAF: trūkstamas

Orai ataskaitas ir orų prognozės (METAR, TAF).

turimą stotys yra geltonos ir raudonos taškus žemėlapyje.

Perkelti pele per norėdami pamatyti stoties vardą.

Tada spustelėkite, norėdami matyti oro stebėjimo ir prognozės.

Norėdami pakeisti žemėlapį: spustelėkite ant žalios mygtukų su juodo kryžiaus žemyn,; žalią mygtuką su brūkšneliu, jei norite nutolinti; arba žalių rodyklių gretimoms žemėlapius.


METAR-TAF: